Time;durP1;ratioP1;P1;durP2;ratioP2;P2;SDS_P1;SDS_P2;PMS_P1;PMS_P2;Temp;Humidity;BMP_temperature;BMP_pressure;BME280_temperature;BME280_humidity;BME280_pressure;Samples;Min_cycle;Max_cycle;Signal;HPM_P1;HPM_P2
2024/01/17 00:00:16;;;;;;;17.37;9.83;;;;;;;-4.51;73.94;99734.75;5071886;28;20284;-63
2024/01/17 00:02:44;;;;;;;14.63;9.00;;;;;;;-4.55;74.35;99727.88;5076623;28;20288;-66
2024/01/17 00:05:13;;;;;;;15.50;9.03;;;;;;;-4.60;75.55;99726.81;5073126;28;20668;-60
2024/01/17 00:07:41;;;;;;;20.13;9.27;;;;;;;-4.61;76.12;99740.16;5065813;28;20753;-60
2024/01/17 00:10:10;;;;;;;18.23;9.13;;;;;;;-4.66;76.84;99734.94;5067349;28;20213;-60
2024/01/17 00:12:37;;;;;;;20.17;10.23;;;;;;;-4.71;77.41;99730.53;5072562;28;20598;-60
2024/01/17 00:15:07;;;;;;;22.90;11.00;;;;;;;-4.75;78.29;99727.00;5072063;28;20212;-60
2024/01/17 00:17:35;;;;;;;21.93;10.60;;;;;;;-4.76;78.87;99726.94;5071271;28;20218;-61
2024/01/17 00:20:03;;;;;;;21.27;11.53;;;;;;;-4.76;79.49;99721.91;5071633;28;20649;-62
2024/01/17 00:22:32;;;;;;;19.30;10.43;;;;;;;-4.80;79.71;99718.41;5072242;28;20236;-58
2024/01/17 00:25:01;;;;;;;22.63;12.10;;;;;;;-4.80;80.50;99722.56;5068722;28;20229;-59
2024/01/17 00:27:28;;;;;;;27.63;13.57;;;;;;;-4.84;81.44;99721.56;5068609;28;20197;-61
2024/01/17 00:29:58;;;;;;;32.60;15.60;;;;;;;-4.84;82.27;99725.75;5072498;28;20244;-60
2024/01/17 00:32:26;;;;;;;30.33;16.17;;;;;;;-4.89;82.79;99723.03;5071666;28;20200;-60
2024/01/17 00:34:54;;;;;;;30.93;16.03;;;;;;;-4.95;83.49;99723.59;5067039;28;20664;-60
2024/01/17 00:37:22;;;;;;;33.80;16.90;;;;;;;-4.99;83.52;99721.75;5072356;28;20566;-60
2024/01/17 00:39:51;;;;;;;33.90;17.33;;;;;;;-5.02;84.22;99716.56;5072754;28;20236;-60
2024/01/17 00:42:19;;;;;;;33.67;18.37;;;;;;;-5.06;84.63;99724.78;5072354;28;20205;-58
2024/01/17 00:44:47;;;;;;;39.00;19.30;;;;;;;-5.10;84.61;99722.91;5071857;28;20297;-59
2024/01/17 00:47:15;;;;;;;39.13;20.37;;;;;;;-5.14;85.10;99721.06;5072409;28;20546;-61
2024/01/17 00:49:43;;;;;;;39.97;19.10;;;;;;;-5.14;85.21;99721.91;5070910;28;20676;-60
2024/01/17 00:52:11;;;;;;;41.83;20.43;;;;;;;-5.13;85.93;99731.16;5066230;28;20210;-61
2024/01/17 00:54:39;;;;;;;37.80;19.53;;;;;;;-5.08;86.22;99735.53;5069585;28;20255;-60
2024/01/17 00:57:09;;;;;;;36.33;19.67;;;;;;;-5.07;85.89;99733.09;5071736;28;20206;-60
2024/01/17 00:59:36;;;;;;;39.03;20.80;;;;;;;-5.05;86.14;99731.50;5070747;28;20233;-60
2024/01/17 01:02:05;;;;;;;38.97;21.00;;;;;;;-5.03;85.42;99732.44;5071395;28;20211;-60
2024/01/17 01:04:33;;;;;;;46.80;22.63;;;;;;;-5.03;86.11;99724.91;5071976;28;20205;-60
2024/01/17 01:07:00;;;;;;;40.30;19.87;;;;;;;-5.02;85.59;99723.25;5071783;28;20692;-60
2024/01/17 01:09:28;;;;;;;40.77;22.23;;;;;;;-5.03;85.34;99711.50;5071611;28;20212;-59
2024/01/17 01:11:56;;;;;;;41.17;21.67;;;;;;;-5.07;85.47;99705.47;5068591;28;20208;-59
2024/01/17 01:14:25;;;;;;;42.20;22.23;;;;;;;-5.05;85.98;99710.56;5064102;28;20292;-61
2024/01/17 01:16:53;;;;;;;46.93;22.43;;;;;;;-5.03;85.82;99707.31;5071485;28;20208;-59
2024/01/17 01:19:21;;;;;;;46.83;23.63;;;;;;;-5.02;85.22;99704.00;5071961;28;20225;-61
2024/01/17 01:21:49;;;;;;;43.30;21.73;;;;;;;-5.04;85.52;99700.59;5071422;28;20201;-62
2024/01/17 01:24:17;;;;;;;41.57;22.40;;;;;;;-5.05;85.66;99711.41;5067552;28;20585;-62
2024/01/17 01:26:45;;;;;;;44.33;22.57;;;;;;;-5.00;86.44;99709.97;5060468;28;20700;-60
2024/01/17 01:29:14;;;;;;;48.07;25.33;;;;;;;-4.96;85.63;99699.28;5069110;28;20561;-59
2024/01/17 01:31:43;;;;;;;45.87;22.17;;;;;;;-4.93;85.47;99694.38;5060191;28;20205;-60
2024/01/17 01:34:11;;;;;;;53.47;25.27;;;;;;;-4.94;85.15;99695.16;5065800;28;20233;-59
2024/01/17 01:36:42;;;;;;;47.70;22.63;;;;;;;-4.95;84.91;99688.44;5070753;28;20593;-61
2024/01/17 01:39:09;;;;;;;49.57;24.83;;;;;;;-4.96;85.28;99691.75;5071448;28;20205;-62
2024/01/17 01:41:37;;;;;;;47.50;23.13;;;;;;;-4.94;85.25;99685.09;5071051;28;20205;-58
2024/01/17 01:44:05;;;;;;;48.03;23.83;;;;;;;-4.89;85.85;99677.81;5069086;28;20205;-60
2024/01/17 01:46:34;;;;;;;43.37;23.77;;;;;;;-4.81;85.86;99681.50;5071307;28;20213;-60
2024/01/17 01:49:04;;;;;;;45.80;23.10;;;;;;;-4.71;85.76;99685.28;5063732;28;20269;-60
2024/01/17 01:51:32;;;;;;;49.90;23.47;;;;;;;-4.67;85.03;99687.13;5066420;28;20247;-58
2024/01/17 01:54:02;;;;;;;48.90;24.40;;;;;;;-4.65;84.83;99688.91;5070809;28;20552;-58
2024/01/17 01:56:35;;;;;;;41.90;23.47;;;;;;;-4.64;84.65;99684.72;5069878;28;20193;-59
2024/01/17 01:59:04;;;;;;;47.70;22.83;;;;;;;-4.66;83.94;99681.31;5071130;28;20675;-59
2024/01/17 02:01:32;;;;;;;48.93;23.73;;;;;;;-4.69;83.75;99677.00;5071137;28;20201;-59
2024/01/17 02:04:03;;;;;;;45.73;24.17;;;;;;;-4.72;84.27;99676.00;5067558;28;20231;-58
2024/01/17 02:06:35;;;;;;;51.33;25.37;;;;;;;-4.74;83.83;99672.59;5067111;28;20692;-60
2024/01/17 02:09:03;;;;;;;46.33;23.97;;;;;;;-4.79;84.33;99674.88;5070253;28;20232;-61
2024/01/17 02:11:32;;;;;;;44.90;24.30;;;;;;;-4.77;84.63;99677.47;5068930;28;20221;-61
2024/01/17 02:14:00;;;;;;;44.07;23.00;;;;;;;-4.76;84.48;99671.63;5061006;28;20292;-59
2024/01/17 02:16:29;;;;;;;46.10;22.80;;;;;;;-4.75;85.31;99669.22;5067558;28;20263;-61
2024/01/17 02:18:58;;;;;;;44.53;23.57;;;;;;;-4.73;85.54;99674.28;5070789;28;20295;-59
2024/01/17 02:21:29;;;;;;;45.60;23.27;;;;;;;-4.67;85.42;99675.41;5069237;28;20255;-61
2024/01/17 02:24:14;;;;;;;50.33;23.47;;;;;;;-4.63;85.30;99671.38;5067558;28;20666;-60
2024/01/17 02:26:42;;;;;;;44.70;21.53;;;;;;;-4.59;85.89;99672.38;5063742;28;20209;-59
2024/01/17 02:29:11;;;;;;;44.10;21.73;;;;;;;-4.52;86.20;99679.38;5068494;28;20205;-60
2024/01/17 02:31:40;;;;;;;43.63;21.77;;;;;;;-4.48;85.79;99672.03;5067651;28;20232;-61
2024/01/17 02:34:08;;;;;;;36.37;19.90;;;;;;;-4.45;84.93;99674.69;5067225;28;20578;-60
2024/01/17 02:36:36;;;;;;;39.40;19.73;;;;;;;-4.45;85.48;99669.66;5070640;28;20197;-60
2024/01/17 02:39:04;;;;;;;46.07;22.27;;;;;;;-4.42;84.92;99666.38;5066178;28;20209;-60
2024/01/17 02:41:34;;;;;;;41.73;20.50;;;;;;;-4.46;84.86;99652.81;5066874;28;20209;-60
2024/01/17 02:44:02;;;;;;;42.83;22.57;;;;;;;-4.43;85.27;99659.66;5067220;28;20293;-60
2024/01/17 02:46:30;;;;;;;36.53;19.97;;;;;;;-4.42;85.04;99661.34;5062229;28;20680;-60
2024/01/17 02:48:58;;;;;;;43.17;22.80;;;;;;;-4.39;84.65;99659.81;5070790;28;20237;-61
2024/01/17 02:51:27;;;;;;;45.33;21.07;;;;;;;-4.40;85.26;99655.59;5072606;28;20201;-58
2024/01/17 02:53:54;;;;;;;44.17;21.03;;;;;;;-4.40;85.31;99645.56;5074108;28;20342;-60
2024/01/17 02:56:22;;;;;;;42.30;20.20;;;;;;;-4.39;85.11;99657.31;5073878;28;20258;-59
2024/01/17 02:58:52;;;;;;;41.60;21.37;;;;;;;-4.39;84.89;99653.94;5064049;28;20217;-58
2024/01/17 03:01:20;;;;;;;34.37;18.83;;;;;;;-4.37;85.76;99650.72;5068179;28;20250;-60
2024/01/17 03:03:49;;;;;;;40.37;21.60;;;;;;;-4.32;85.55;99660.09;5067736;28;20514;-59
2024/01/17 03:06:17;;;;;;;37.77;20.07;;;;;;;-4.32;86.13;99653.41;5073072;28;20615;-59
2024/01/17 03:08:46;;;;;;;34.93;18.97;;;;;;;-4.28;85.38;99649.38;5074062;28;20247;-60
2024/01/17 03:11:14;;;;;;;40.30;19.80;;;;;;;-4.27;85.65;99646.03;5074398;28;20572;-60
2024/01/17 03:13:42;;;;;;;42.23;20.90;;;;;;;-4.25;85.57;99640.28;5069311;28;20717;-60
2024/01/17 03:16:13;;;;;;;34.30;19.33;;;;;;;-4.22;85.12;99640.41;5073067;28;20483;-60
2024/01/17 03:18:41;;;;;;;31.17;18.03;;;;;;;-4.18;85.09;99641.41;5075780;28;20204;-59
2024/01/17 03:21:09;;;;;;;37.97;20.07;;;;;;;-4.13;85.58;99644.94;5077830;28;20565;-60
2024/01/17 03:23:37;;;;;;;37.77;18.33;;;;;;;-4.11;85.29;99628.28;5069132;28;20201;-60
2024/01/17 03:26:05;;;;;;;33.50;17.70;;;;;;;-4.09;85.41;99636.72;5068483;28;20205;-60
2024/01/17 03:28:33;;;;;;;32.07;17.47;;;;;;;-4.08;85.83;99638.47;5066875;28;20201;-60
2024/01/17 03:31:01;;;;;;;32.87;17.70;;;;;;;-4.07;85.62;99635.16;5067340;28;20221;-61
2024/01/17 03:33:30;;;;;;;32.90;17.23;;;;;;;-4.05;85.79;99641.09;5073667;28;20205;-60
2024/01/17 03:35:58;;;;;;;32.33;18.93;;;;;;;-4.04;85.30;99642.81;5072382;28;20205;-59
2024/01/17 03:38:26;;;;;;;35.17;17.43;;;;;;;-4.07;85.56;99641.84;5073511;28;20204;-59
2024/01/17 03:40:55;;;;;;;31.73;17.73;;;;;;;-4.09;85.63;99638.38;5073117;28;20201;-60
2024/01/17 03:43:24;;;;;;;39.80;19.00;;;;;;;-4.11;85.59;99638.34;5064300;28;20771;-60
2024/01/17 03:45:53;;;;;;;30.80;17.00;;;;;;;-4.11;86.30;99647.53;5068482;28;20215;-59
2024/01/17 03:48:21;;;;;;;35.13;18.23;;;;;;;-4.10;85.77;99649.25;5066083;28;20704;-60
2024/01/17 03:50:51;;;;;;;34.50;17.77;;;;;;;-4.10;85.92;99645.06;5071666;28;20252;-60
2024/01/17 03:53:19;;;;;;;38.00;18.93;;;;;;;-4.08;86.26;99653.56;5073671;28;20228;-59
2024/01/17 03:55:47;;;;;;;30.27;16.57;;;;;;;-4.08;85.89;99643.50;5073059;28;20213;-61
2024/01/17 03:58:14;;;;;;;32.97;17.40;;;;;;;-4.11;85.64;99640.84;5072244;28;20554;-60
2024/01/17 04:00:42;;;;;;;39.30;17.20;;;;;;;-4.11;85.77;99645.88;5067609;28;20221;-59
2024/01/17 04:03:12;;;;;;;31.43;16.73;;;;;;;-4.11;86.13;99645.88;5065656;28;20229;-59
2024/01/17 04:05:41;;;;;;;38.97;17.70;;;;;;;-4.12;85.58;99639.16;5068687;28;20602;-59
2024/01/17 04:08:11;;;;;;;33.33;17.30;;;;;;;-4.13;85.58;99634.88;5071163;28;20270;-59
2024/01/17 04:10:39;;;;;;;31.07;16.53;;;;;;;-4.15;85.32;99632.31;5070356;28;20652;-59
2024/01/17 04:13:06;;;;;;;33.27;17.07;;;;;;;-4.15;85.04;99636.50;5069660;28;20205;-59
2024/01/17 04:15:34;;;;;;;35.33;17.40;;;;;;;-4.16;85.77;99630.63;5072837;28;20597;-61
2024/01/17 04:18:04;;;;;;;26.90;15.50;;;;;;;-4.15;85.71;99629.81;5069105;28;20206;-59
2024/01/17 04:20:32;;;;;;;34.93;16.17;;;;;;;-4.18;85.44;99628.81;5063602;28;20210;-60
2024/01/17 04:23:00;;;;;;;32.07;16.57;;;;;;;-4.19;85.52;99630.50;5071618;28;20209;-62
2024/01/17 04:25:32;;;;;;;29.37;16.20;;;;;;;-4.22;85.67;99627.84;5072619;28;20209;-60
2024/01/17 04:28:00;;;;;;;26.67;15.23;;;;;;;-4.23;85.21;99622.75;5069177;28;20287;-59
2024/01/17 04:30:28;;;;;;;31.33;15.67;;;;;;;-4.21;85.40;99634.59;5072086;28;20202;-60
2024/01/17 04:32:56;;;;;;;29.53;15.83;;;;;;;-4.18;85.39;99631.34;5072322;28;20663;-59
2024/01/17 04:35:24;;;;;;;29.57;16.33;;;;;;;-4.16;85.67;99632.25;5071943;28;20263;-60
2024/01/17 04:37:53;;;;;;;31.57;16.27;;;;;;;-4.15;85.91;99633.97;5064694;28;20288;-60
2024/01/17 04:40:21;;;;;;;34.10;18.03;;;;;;;-4.12;85.97;99636.63;5071773;28;20288;-60
2024/01/17 04:42:51;;;;;;;33.43;16.50;;;;;;;-4.09;85.62;99639.25;5072243;28;20562;-61
2024/01/17 04:45:19;;;;;;;29.20;16.23;;;;;;;-4.08;85.63;99635.09;5072413;28;20629;-60
2024/01/17 04:47:49;;;;;;;28.37;15.67;;;;;;;-4.10;85.21;99636.69;5069569;28;20210;-59
2024/01/17 04:50:17;;;;;;;29.53;15.83;;;;;;;-4.09;85.33;99639.25;5071767;28;20236;-60
2024/01/17 04:52:45;;;;;;;26.90;15.53;;;;;;;-4.08;85.53;99633.44;5066745;28;20232;-57
2024/01/17 04:55:15;;;;;;;29.60;15.17;;;;;;;-4.03;85.54;99642.00;5067508;28;20205;-58
2024/01/17 04:57:42;;;;;;;28.27;15.83;;;;;;;-4.04;85.25;99637.78;5070993;28;20660;-60
2024/01/17 05:00:14;;;;;;;27.97;15.33;;;;;;;-4.01;84.96;99635.41;5072206;28;20544;-60
2024/01/17 05:02:43;;;;;;;28.40;16.13;;;;;;;-4.03;84.60;99631.09;5071405;28;20202;-60
2024/01/17 05:05:11;;;;;;;28.97;14.90;;;;;;;-4.02;84.79;99633.66;5071792;28;20205;-61
2024/01/17 05:07:39;;;;;;;30.37;15.83;;;;;;;-4.04;84.14;99635.28;5071378;28;20693;-60
2024/01/17 05:10:08;;;;;;;31.87;16.07;;;;;;;-4.04;85.04;99630.25;5071321;28;20201;-60
2024/01/17 05:12:36;;;;;;;29.60;16.30;;;;;;;-4.03;84.61;99631.09;5059239;28;20193;-59
2024/01/17 05:15:05;;;;;;;24.87;14.20;;;;;;;-4.03;84.17;99634.47;5068851;28;20203;-59
2024/01/17 05:17:34;;;;;;;31.73;15.17;;;;;;;-4.06;83.83;99634.34;5069928;28;20208;-59
2024/01/17 05:20:03;;;;;;;28.40;14.23;;;;;;;-4.06;84.29;99624.28;5070898;28;20679;-60
2024/01/17 05:22:31;;;;;;;28.83;14.70;;;;;;;-4.03;84.75;99631.94;5070746;28;20706;-61
2024/01/17 05:24:58;;;;;;;23.03;13.47;;;;;;;-4.02;84.46;99631.13;5070814;28;20575;-59
2024/01/17 05:27:26;;;;;;;31.47;15.43;;;;;;;-4.00;84.30;99627.03;5063298;28;20275;-60
2024/01/17 05:29:54;;;;;;;23.13;14.23;;;;;;;-3.96;84.17;99628.88;5061449;28;20210;-64
2024/01/17 05:32:22;;;;;;;31.53;15.07;;;;;;;-3.94;84.00;99626.41;5064290;28;20253;-61
2024/01/17 05:34:53;;;;;;;29.37;14.67;;;;;;;-3.91;83.60;99636.59;5067408;28;20201;-60
2024/01/17 05:37:21;;;;;;;29.43;13.93;;;;;;;-3.91;83.02;99629.91;5070835;28;20286;-60
2024/01/17 05:39:49;;;;;;;24.80;13.67;;;;;;;-3.90;83.84;99631.66;5061285;28;20212;-57
2024/01/17 05:42:17;;;;;;;33.60;15.40;;;;;;;-3.88;83.38;99631.69;5069314;28;20205;-59
2024/01/17 05:44:45;;;;;;;28.57;14.03;;;;;;;-3.89;83.04;99630.84;5067449;28;20201;-58
2024/01/17 05:47:13;;;;;;;32.67;15.37;;;;;;;-3.88;82.84;99621.63;5069585;28;20728;-58
2024/01/17 05:49:41;;;;;;;26.87;14.23;;;;;;;-3.91;83.15;99624.03;5062968;28;20268;-58
2024/01/17 05:52:10;;;;;;;30.83;15.80;;;;;;;-3.93;83.26;99623.97;5072132;28;20193;-57
2024/01/17 05:54:38;;;;;;;29.90;16.00;;;;;;;-3.93;82.92;99620.59;5070259;28;20243;-58
2024/01/17 05:57:06;;;;;;;27.00;14.07;;;;;;;-3.93;83.33;99623.97;5062497;28;20292;-59
2024/01/17 05:59:34;;;;;;;28.87;14.83;;;;;;;-3.92;83.16;99615.63;5067499;28;20202;-62
2024/01/17 06:02:02;;;;;;;31.37;14.30;;;;;;;-3.89;83.28;99607.34;5058150;28;20258;-60
2024/01/17 06:04:33;;;;;;;28.50;14.03;;;;;;;-3.88;83.03;99617.44;5071730;28;20239;-63
2024/01/17 06:07:01;;;;;;;29.33;14.47;;;;;;;-3.88;82.85;99622.47;5070660;28;20288;-64
2024/01/17 06:09:30;;;;;;;25.03;14.13;;;;;;;-3.86;82.88;99620.03;5065994;28;20221;-60
2024/01/17 06:11:58;;;;;;;30.80;15.27;;;;;;;-3.88;82.81;99622.47;5064126;28;20315;-61
2024/01/17 06:14:26;;;;;;;28.30;14.33;;;;;;;-3.88;82.48;99630.03;5065701;28;20744;-62
2024/01/17 06:16:54;;;;;;;29.73;14.70;;;;;;;-3.93;82.16;99621.47;5064520;28;20242;-61
2024/01/17 06:19:22;;;;;;;27.93;13.57;;;;;;;-3.93;82.46;99634.03;5061690;28;20680;-61
2024/01/17 06:21:50;;;;;;;25.97;15.27;;;;;;;-3.95;82.67;99638.13;5070887;28;20201;-62
2024/01/17 06:24:18;;;;;;;27.10;13.93;;;;;;;-3.99;82.35;99627.91;5070081;28;20208;-61
2024/01/17 06:26:47;;;;;;;27.13;14.07;;;;;;;-3.98;82.08;99640.53;5070862;28;20205;-59
2024/01/17 06:29:15;;;;;;;29.30;14.37;;;;;;;-4.02;82.32;99636.19;5070075;28;20220;-61
2024/01/17 06:31:43;;;;;;;32.37;15.17;;;;;;;-4.06;82.42;99641.88;5059633;28;20209;-61
2024/01/17 06:34:11;;;;;;;29.40;16.00;;;;;;;-4.10;82.31;99631.66;5059423;28;20224;-61
2024/01/17 06:36:39;;;;;;;26.77;14.40;;;;;;;-4.12;82.60;99629.09;5067626;28;20237;-61
2024/01/17 06:39:07;;;;;;;28.60;14.90;;;;;;;-4.15;82.47;99626.44;5070718;28;20236;-61
2024/01/17 06:41:35;;;;;;;27.40;14.00;;;;;;;-4.15;82.63;99622.25;5069836;28;20209;-58
2024/01/17 06:44:05;;;;;;;28.87;14.83;;;;;;;-4.13;82.43;99624.81;5070545;28;20209;-60
2024/01/17 06:46:33;;;;;;;28.57;14.63;;;;;;;-4.14;82.84;99618.09;5062143;28;20676;-58
2024/01/17 06:49:01;;;;;;;31.10;15.70;;;;;;;-4.19;82.59;99620.44;5069636;28;21142;-60
2024/01/17 06:51:29;;;;;;;29.27;14.13;;;;;;;-4.17;82.30;99612.94;5070968;28;20727;-60
2024/01/17 06:53:58;;;;;;;31.07;15.03;;;;;;;-4.20;82.21;99607.75;5062427;28;20224;-59
2024/01/17 06:56:26;;;;;;;29.20;13.87;;;;;;;-4.19;82.64;99605.34;5067963;28;20301;-64
2024/01/17 06:58:54;;;;;;;27.13;14.77;;;;;;;-4.18;82.61;99599.50;5065613;28;20201;-63
2024/01/17 07:01:24;;;;;;;29.87;15.40;;;;;;;-4.13;83.26;99599.66;5069211;28;20334;-63
2024/01/17 07:03:52;;;;;;;26.67;15.10;;;;;;;-4.12;82.73;99601.41;5069110;28;20624;-63
2024/01/17 07:06:20;;;;;;;32.53;19.42;;;;;;;-4.11;83.09;99583.00;5068970;28;20437;-63
2024/01/17 07:08:48;;;;;;;25.37;14.47;;;;;;;-4.10;83.01;99584.69;5069226;28;20222;-62
2024/01/17 07:11:18;;;;;;;25.23;15.33;;;;;;;-4.08;82.76;99575.56;5069752;28;20216;-64
2024/01/17 07:13:46;;;;;;;28.00;15.13;;;;;;;-4.05;82.54;99588.28;5069173;28;20205;-61
2024/01/17 07:16:15;;;;;;;29.60;14.80;;;;;;;-4.03;82.83;99575.75;5057940;28;20263;-62
2024/01/17 07:18:44;;;;;;;28.60;14.70;;;;;;;-4.04;82.37;99569.00;5067378;28;20631;-61
2024/01/17 07:21:12;;;;;;;29.50;14.70;;;;;;;-4.01;82.56;99575.00;5066506;28;20354;-62
2024/01/17 07:23:42;;;;;;;30.27;15.40;;;;;;;-3.99;81.95;99565.84;5069137;28;20247;-62
2024/01/17 07:26:10;;;;;;;25.27;14.47;;;;;;;-3.98;82.08;99565.03;5062005;28;20285;-66
2024/01/17 07:28:38;;;;;;;39.73;14.87;;;;;;;-3.96;82.39;99562.59;5062469;28;20302;-58
2024/01/17 07:31:06;;;;;;;28.47;14.90;;;;;;;-3.94;81.83;99560.97;5057439;28;20209;-56
2024/01/17 07:33:33;;;;;;;28.47;15.50;;;;;;;-3.94;82.38;99558.47;5067315;28;20201;-55
2024/01/17 07:36:03;;;;;;;33.27;15.37;;;;;;;-3.96;82.33;99558.41;5064054;28;20648;-60
2024/01/17 07:38:32;;;;;;;28.73;15.73;;;;;;;-3.98;81.49;99554.97;5066369;28;20212;-58
2024/01/17 07:41:00;;;;;;;31.00;15.90;;;;;;;-4.03;81.82;99551.44;5069833;28;20258;-59
2024/01/17 07:43:28;;;;;;;29.63;14.97;;;;;;;-4.05;81.87;99548.03;5073948;28;20207;-58
2024/01/17 07:45:57;;;;;;;31.20;16.43;;;;;;;-4.09;81.88;99541.13;5071530;28;20270;-59
2024/01/17 07:48:25;;;;;;;31.00;16.63;;;;;;;-4.11;81.96;99535.19;5059913;28;20206;-59
2024/01/17 07:50:54;;;;;;;35.13;16.90;;;;;;;-4.17;81.55;99527.41;5073615;28;20240;-59
2024/01/17 07:53:26;;;;;;;32.20;17.43;;;;;;;-4.20;81.85;99528.16;5066722;28;20288;-56
2024/01/17 07:55:55;;;;;;;36.53;17.20;;;;;;;-4.20;82.01;99527.28;5073028;28;20546;-62
2024/01/17 07:58:24;;;;;;;28.63;16.33;;;;;;;-4.22;82.32;99528.91;5073750;28;20236;-61
2024/01/17 08:00:53;;;;;;;32.90;16.53;;;;;;;-4.24;82.44;99523.78;5070089;28;20642;-58
2024/01/17 08:03:21;;;;;;;34.37;18.33;;;;;;;-4.25;82.81;99529.63;5072317;28;20232;-61
2024/01/17 08:05:49;;;;;;;34.53;18.73;;;;;;;-4.25;82.03;99519.56;5072431;28;20200;-62
2024/01/17 08:08:17;;;;;;;35.77;18.03;;;;;;;-4.26;82.09;99511.97;5073746;28;20683;-62
2024/01/17 08:10:46;;;;;;;33.57;17.73;;;;;;;-4.23;81.99;99517.13;5072881;28;20300;-63
2024/01/17 08:13:14;;;;;;;32.77;17.53;;;;;;;-4.26;81.73;99509.47;5070823;28;20233;-55
2024/01/17 08:15:42;;;;;;;33.17;17.10;;;;;;;-4.29;81.79;99506.81;5072083;28;20193;-54
2024/01/17 08:18:10;;;;;;;33.50;18.37;;;;;;;-4.32;81.74;99501.66;5065334;28;20284;-56
2024/01/17 08:20:38;;;;;;;33.47;17.37;;;;;;;-4.38;82.07;99495.59;5072344;28;20201;-60
2024/01/17 08:23:06;;;;;;;38.63;18.63;;;;;;;-4.37;82.34;99497.31;5064244;28;20296;-51
2024/01/17 08:25:34;;;;;;;37.50;18.67;;;;;;;-4.37;81.77;99498.97;5067693;28;20213;-56
2024/01/17 08:28:04;;;;;;;34.97;17.73;;;;;;;-4.35;82.23;99501.53;5070834;28;20205;-57
2024/01/17 08:30:32;;;;;;;35.80;18.00;;;;;;;-4.37;82.02;99502.34;5069248;28;20680;-54
2024/01/17 08:33:00;;;;;;;33.50;18.33;;;;;;;-4.37;81.62;99499.84;5067469;28;20296;-57
2024/01/17 08:35:28;;;;;;;31.73;17.27;;;;;;;-4.32;81.75;99506.69;5072339;28;20213;-56
2024/01/17 08:37:56;;;;;;;28.57;16.87;;;;;;;-4.31;81.83;99505.88;5067156;28;20209;-56
2024/01/17 08:40:24;;;;;;;33.63;16.57;;;;;;;-4.28;81.94;99511.91;5067188;28;20667;-56
2024/01/17 08:42:52;;;;;;;37.27;17.67;;;;;;;-4.21;81.60;99507.97;5071751;28;20266;-51
2024/01/17 08:45:22;;;;;;;34.60;18.10;;;;;;;-4.13;81.84;99519.16;5070697;28;20652;-55
2024/01/17 08:47:50;;;;;;;35.87;18.20;;;;;;;-4.06;81.56;99501.00;5069993;28;20208;-53
2024/01/17 08:50:19;;;;;;;28.40;16.70;;;;;;;-4.00;81.45;99502.91;5055945;28;20260;-55
2024/01/17 08:52:48;;;;;;;31.77;17.57;;;;;;;-3.96;81.14;99498.03;5071214;28;20208;-56
2024/01/17 08:55:16;;;;;;;32.70;15.87;;;;;;;-3.94;81.06;99495.56;5072253;28;20213;-54
2024/01/17 08:57:44;;;;;;;32.57;17.03;;;;;;;-3.93;80.77;99490.59;5066517;28;20288;-55
2024/01/17 09:00:14;;;;;;;34.47;18.23;;;;;;;-3.90;80.14;99488.19;5075527;28;20216;-57
2024/01/17 09:02:43;;;;;;;29.67;16.47;;;;;;;-3.84;80.86;99481.66;5072487;28;20670;-62
2024/01/17 09:05:11;;;;;;;31.63;16.70;;;;;;;-3.78;81.15;99476.88;5070040;28;20614;-56
2024/01/17 09:07:42;;;;;;;33.63;17.43;;;;;;;-3.73;81.05;99470.31;5066571;28;20260;-55
2024/01/17 09:10:13;;;;;;;33.03;16.10;;;;;;;-3.67;80.07;99466.38;5062209;28;20210;-53
2024/01/17 09:12:41;;;;;;;32.37;16.70;;;;;;;-3.60;80.17;99462.44;5066096;28;20295;-56
2024/01/17 09:15:09;;;;;;;32.87;17.97;;;;;;;-3.55;79.78;99458.41;5067570;28;20213;-56
2024/01/17 09:17:37;;;;;;;32.00;16.97;;;;;;;-3.52;79.44;99450.97;5067541;28;20212;-55
2024/01/17 09:20:08;;;;;;;32.00;17.33;;;;;;;-3.51;79.68;99450.16;5071482;28;20288;-55
2024/01/17 09:22:36;;;;;;;35.47;17.27;;;;;;;-3.47;79.10;99444.41;5071640;28;20197;-54
2024/01/17 09:25:05;;;;;;;31.47;17.60;;;;;;;-3.45;79.52;99447.00;5067112;28;20671;-54
2024/01/17 09:27:33;;;;;;;30.43;17.73;;;;;;;-3.45;78.83;99435.25;5060565;28;20205;-56
2024/01/17 09:30:01;;;;;;;36.40;17.17;;;;;;;-3.45;79.00;99431.88;5069501;28;20726;-59
2024/01/17 09:32:29;;;;;;;32.97;16.43;;;;;;;-3.43;78.65;99420.19;5060694;28;20206;-54
2024/01/17 09:34:57;;;;;;;36.63;18.60;;;;;;;-3.42;78.71;99422.78;5064353;28;20577;-54
2024/01/17 09:37:27;;;;;;;37.07;16.77;;;;;;;-3.42;78.35;99407.66;5065119;28;20676;-56
2024/01/17 09:39:55;;;;;;;31.50;16.93;;;;;;;-3.38;78.93;99403.59;5070241;28;20240;-58
2024/01/17 09:42:24;;;;;;;29.67;16.43;;;;;;;-3.37;78.62;99382.63;5065947;28;20209;-53
2024/01/17 09:44:51;;;;;;;29.80;17.00;;;;;;;-3.33;78.83;99386.09;5070603;28;20228;-56
2024/01/17 09:47:20;;;;;;;32.07;17.03;;;;;;;-3.31;78.74;99374.44;5065090;28;20698;-55
2024/01/17 09:49:47;;;;;;;30.47;17.07;;;;;;;-3.29;78.33;99375.31;5071215;28;20241;-56
2024/01/17 09:52:18;;;;;;;35.80;16.77;;;;;;;-3.27;78.29;99367.00;5071386;28;20589;-51
2024/01/17 09:54:47;;;;;;;31.73;16.97;;;;;;;-3.23;78.55;99362.94;5071242;28;20207;-55
2024/01/17 09:57:22;;;;;;;30.67;15.57;;;;;;;-3.20;78.32;99352.97;5072881;28;20200;-55
2024/01/17 09:59:57;;;;;;;30.93;15.60;;;;;;;-3.14;78.29;99340.53;5071563;28;20213;-56
2024/01/17 10:02:27;;;;;;;32.93;17.70;;;;;;;-3.13;78.03;99328.78;5071323;28;20570;-53
2024/01/17 10:04:57;;;;;;;29.83;16.03;;;;;;;-3.12;77.53;99333.91;5066417;28;20208;-54
2024/01/17 10:07:25;;;;;;;31.50;15.17;;;;;;;-3.10;77.63;99319.66;5069369;28;20228;-50
2024/01/17 10:09:54;;;;;;;29.93;15.90;;;;;;;-3.06;77.10;99323.13;5070555;28;20582;-56
2024/01/17 10:12:22;;;;;;;32.40;16.20;;;;;;;-3.03;77.24;99310.63;5069224;28;20204;-55
2024/01/17 10:14:51;;;;;;;31.20;16.20;;;;;;;-3.02;76.44;99305.66;5068452;28;20205;-52
2024/01/17 10:17:19;;;;;;;33.33;17.63;;;;;;;-2.98;77.16;99304.94;5063705;28;20240;-51
2024/01/17 10:19:47;;;;;;;28.30;16.53;;;;;;;-2.96;77.02;99298.28;5069506;28;20280;-54
2024/01/17 10:22:15;;;;;;;33.93;17.23;;;;;;;-2.90;76.71;99286.69;5064818;28;20266;-52
2024/01/17 10:24:43;;;;;;;33.27;17.47;;;;;;;-2.89;76.17;99283.34;5064779;28;20244;-54
2024/01/17 10:27:13;;;;;;;35.17;18.73;;;;;;;-2.94;76.01;99273.13;5053929;28;20297;-54
2024/01/17 10:29:41;;;;;;;35.37;18.30;;;;;;;-2.98;76.19;99263.78;5056897;28;20206;-55
2024/01/17 10:32:09;;;;;;;34.20;17.80;;;;;;;-3.01;76.30;99258.63;5065609;28;20252;-56
2024/01/17 10:34:38;;;;;;;36.47;18.40;;;;;;;-3.03;76.07;99252.69;5071641;28;20251;-54
2024/01/17 10:37:06;;;;;;;31.17;17.40;;;;;;;-3.05;76.52;99252.66;5065067;28;20209;-55
2024/01/17 10:39:34;;;;;;;32.23;18.30;;;;;;;-3.03;76.59;99237.56;5071036;28;20205;-54
2024/01/17 10:42:05;;;;;;;30.00;17.40;;;;;;;-2.98;77.01;99234.38;5069747;28;20227;-58
2024/01/17 10:44:35;;;;;;;33.07;17.23;;;;;;;-2.92;76.11;99228.66;5061536;28;20202;-51
2024/01/17 10:47:03;;;;;;;34.27;16.80;;;;;;;-2.88;76.21;99219.50;5071454;28;20205;-53
2024/01/17 10:49:30;;;;;;;33.20;17.80;;;;;;;-2.83;75.91;99216.31;5062572;28;20275;-60
2024/01/17 10:52:03;;;;;;;36.43;18.10;;;;;;;-2.83;75.95;99207.91;5068680;28;20224;-52
2024/01/17 10:54:41;;;;;;;37.57;19.13;;;;;;;-2.82;75.70;99202.91;5067861;28;20292;-53
2024/01/17 10:57:11;;;;;;;33.67;18.53;;;;;;;-2.74;75.73;99203.13;5070683;28;20289;-55
2024/01/17 10:59:42;;;;;;;31.97;16.67;;;;;;;-2.68;75.46;99206.66;5068942;28;20227;-56
2024/01/17 11:02:18;;;;;;;32.80;18.10;;;;;;;-2.63;75.23;99191.66;5071087;28;20644;-55
2024/01/17 11:04:48;;;;;;;31.33;18.13;;;;;;;-2.61;74.72;99187.53;5067819;28;20201;-58
2024/01/17 11:07:18;;;;;;;35.40;17.67;;;;;;;-2.60;75.36;99176.63;5056325;28;20564;-51
2024/01/17 11:09:49;;;;;;;31.03;17.03;;;;;;;-2.53;75.31;99172.59;5068729;28;20565;-55
2024/01/17 11:12:23;;;;;;;28.27;16.77;;;;;;;-2.48;74.64;99171.03;5074802;28;20243;-53
2024/01/17 11:14:55;;;;;;;35.00;18.07;;;;;;;-2.49;74.74;99162.63;5073895;28;20300;-54
2024/01/17 11:17:25;;;;;;;29.27;16.57;;;;;;;-2.46;75.03;99160.19;5074260;28;20735;-54
2024/01/17 11:20:08;;;;;;;31.10;16.63;;;;;;;-2.39;74.91;99166.25;5074841;28;20621;-54
2024/01/17 11:22:37;;;;;;;34.73;17.00;;;;;;;-2.34;75.06;99144.50;5072457;28;20220;-54